JBU290 KMCO-KFLL
Flight info
| Callsign | JBU290 |
|---|---|
| Flight time | 0h 41m |
| Altitude | 23000 |
| Route | DDANY3 JIPOD CUUDA3 |
| Aircraft | A321/M-SDE3FGHIRWY/LB1 |
Departure
| Time | 2026-05-06 16:59 |
|---|---|
| Airport | Orlando International Airport (KMCO) |
Arrival
| Time | 2026-05-06 17:41 |
|---|---|
| Airport | Fort Lauderdale Hollywood International Airport (KFLL) |
| Time | Latitude | Longitude | Altitude | Speed | Heading |
|---|---|---|---|---|---|
| 2026-05-06 16:29 | 28.41518 | -81.31452 | 87 ft | 0 kts | 101° |
| 2026-05-06 16:41 | 28.41495 | -81.31518 | 87 ft | 0 kts | 6° |
| 2026-05-06 16:45 | 28.41520 | -81.31513 | 87 ft | 9 kts | 11° |
| 2026-05-06 16:46 | 28.41590 | -81.31517 | 87 ft | 10 kts | 337° |
| 2026-05-06 16:46 | 28.41606 | -81.31527 | 87 ft | 9 kts | 324° |
| 2026-05-06 16:46 | 28.41614 | -81.31535 | 87 ft | 9 kts | 319° |
| 2026-05-06 16:47 | 28.41646 | -81.31596 | 87 ft | 8 kts | 296° |
| 2026-05-06 16:47 | 28.41668 | -81.31658 | 88 ft | 8 kts | 279° |
| 2026-05-06 16:47 | 28.41677 | -81.31729 | 88 ft | 10 kts | 282° |
| 2026-05-06 16:47 | 28.41729 | -81.31788 | 89 ft | 12 kts | 347° |
| 2026-05-06 16:48 | 28.41823 | -81.31792 | 89 ft | 14 kts | 0° |
| 2026-05-06 16:48 | 28.41929 | -81.31793 | 89 ft | 16 kts | 0° |
| 2026-05-06 16:48 | 28.42045 | -81.31794 | 90 ft | 16 kts | 360° |
| 2026-05-06 16:48 | 28.42153 | -81.31783 | 90 ft | 15 kts | 15° |
| 2026-05-06 16:49 | 28.42244 | -81.31752 | 89 ft | 10 kts | 28° |
| 2026-05-06 16:49 | 28.42269 | -81.31673 | 89 ft | 11 kts | 88° |
| 2026-05-06 16:49 | 28.42268 | -81.31583 | 88 ft | 11 kts | 94° |
| 2026-05-06 16:49 | 28.42266 | -81.31491 | 88 ft | 11 kts | 90° |
| 2026-05-06 16:50 | 28.42267 | -81.31401 | 87 ft | 11 kts | 90° |
| 2026-05-06 16:50 | 28.42268 | -81.31312 | 87 ft | 11 kts | 89° |
| 2026-05-06 16:50 | 28.42263 | -81.31224 | 87 ft | 12 kts | 98° |
| 2026-05-06 16:50 | 28.42242 | -81.31108 | 87 ft | 16 kts | 104° |
| 2026-05-06 16:51 | 28.42235 | -81.30975 | 87 ft | 16 kts | 87° |
| 2026-05-06 16:51 | 28.42241 | -81.30849 | 87 ft | 15 kts | 85° |
| 2026-05-06 16:51 | 28.42250 | -81.30735 | 87 ft | 14 kts | 86° |
| 2026-05-06 16:51 | 28.42256 | -81.30630 | 88 ft | 13 kts | 86° |
| 2026-05-06 16:52 | 28.42263 | -81.30530 | 88 ft | 12 kts | 84° |
| 2026-05-06 16:52 | 28.42272 | -81.30439 | 89 ft | 11 kts | 84° |
| 2026-05-06 16:52 | 28.42279 | -81.30351 | 89 ft | 11 kts | 85° |
| 2026-05-06 16:52 | 28.42281 | -81.30257 | 89 ft | 11 kts | 90° |
| 2026-05-06 16:53 | 28.42278 | -81.30162 | 90 ft | 12 kts | 93° |
| 2026-05-06 16:53 | 28.42277 | -81.30064 | 90 ft | 12 kts | 90° |
| 2026-05-06 16:53 | 28.42279 | -81.29961 | 90 ft | 13 kts | 90° |
| 2026-05-06 16:53 | 28.42278 | -81.29853 | 90 ft | 13 kts | 90° |
| 2026-05-06 16:54 | 28.42280 | -81.29748 | 90 ft | 11 kts | 82° |
| 2026-05-06 16:54 | 28.42328 | -81.29699 | 90 ft | 10 kts | 2° |
| 2026-05-06 16:54 | 28.42402 | -81.29700 | 90 ft | 11 kts | 359° |
| 2026-05-06 16:54 | 28.42499 | -81.29702 | 90 ft | 14 kts | 359° |
| 2026-05-06 16:55 | 28.42604 | -81.29703 | 90 ft | 14 kts | 360° |
| 2026-05-06 16:55 | 28.42708 | -81.29703 | 90 ft | 15 kts | 360° |
| 2026-05-06 16:55 | 28.42815 | -81.29704 | 90 ft | 16 kts | 360° |
| 2026-05-06 16:55 | 28.42953 | -81.29706 | 90 ft | 20 kts | 360° |
| 2026-05-06 16:56 | 28.43096 | -81.29707 | 91 ft | 20 kts | 360° |
| 2026-05-06 16:56 | 28.43236 | -81.29708 | 91 ft | 19 kts | 360° |
| 2026-05-06 16:56 | 28.43373 | -81.29709 | 91 ft | 19 kts | 360° |
| 2026-05-06 16:56 | 28.43495 | -81.29711 | 91 ft | 9 kts | 358° |
| 2026-05-06 16:57 | 28.43543 | -81.29712 | 91 ft | 4 kts | 16° |
| 2026-05-06 16:57 | 28.43549 | -81.29689 | 91 ft | 0 kts | 84° |
| 2026-05-06 16:58 | 28.43549 | -81.29684 | 91 ft | 2 kts | 84° |
| 2026-05-06 16:58 | 28.43551 | -81.29655 | 91 ft | 6 kts | 89° |
| 2026-05-06 16:58 | 28.43543 | -81.29600 | 91 ft | 7 kts | 134° |
| 2026-05-06 16:58 | 28.43479 | -81.29587 | 91 ft | 15 kts | 179° |
| 2026-05-06 16:59 | 28.43144 | -81.29582 | 91 ft | 84 kts | 180° |
| 2026-05-06 16:59 | 28.42324 | -81.29576 | 90 ft | 148 kts | 180° |
| 2026-05-06 16:59 | 28.41224 | -81.29549 | 491 ft | 161 kts | 178° |
| 2026-05-06 16:59 | 28.40124 | -81.29487 | 1166 ft | 157 kts | 176° |
| 2026-05-06 17:00 | 28.39055 | -81.29282 | 1729 ft | 158 kts | 166° |
| 2026-05-06 17:00 | 28.38038 | -81.28891 | 2182 ft | 153 kts | 158° |
| 2026-05-06 17:00 | 28.37064 | -81.28339 | 2413 ft | 158 kts | 153° |
| 2026-05-06 17:00 | 28.35995 | -81.27928 | 2544 ft | 171 kts | 167° |
| 2026-05-06 17:01 | 28.34868 | -81.27345 | 2653 ft | 188 kts | 142° |
| 2026-05-06 17:01 | 28.33943 | -81.26206 | 2770 ft | 206 kts | 123° |
| 2026-05-06 17:01 | 28.33480 | -81.24589 | 2881 ft | 224 kts | 102° |
| 2026-05-06 17:01 | 28.33232 | -81.22728 | 2873 ft | 253 kts | 98° |
| 2026-05-06 17:02 | 28.32991 | -81.20682 | 3228 ft | 267 kts | 98° |
| 2026-05-06 17:02 | 28.32728 | -81.18602 | 3956 ft | 268 kts | 99° |
| 2026-05-06 17:02 | 28.32446 | -81.16518 | 4653 ft | 270 kts | 99° |
| 2026-05-06 17:02 | 28.32149 | -81.14423 | 5308 ft | 272 kts | 99° |
| 2026-05-06 17:03 | 28.31842 | -81.12299 | 5910 ft | 276 kts | 99° |
| 2026-05-06 17:03 | 28.31528 | -81.10156 | 6501 ft | 279 kts | 99° |
| 2026-05-06 17:03 | 28.31206 | -81.07979 | 7078 ft | 281 kts | 99° |
| 2026-05-06 17:03 | 28.30883 | -81.05810 | 7635 ft | 284 kts | 99° |
| 2026-05-06 17:04 | 28.30552 | -81.03594 | 8225 ft | 287 kts | 99° |
| 2026-05-06 17:04 | 28.30218 | -81.01360 | 8812 ft | 290 kts | 99° |
| 2026-05-06 17:04 | 28.29884 | -80.99131 | 9352 ft | 293 kts | 98° |
| 2026-05-06 17:04 | 28.29540 | -80.96841 | 9873 ft | 296 kts | 98° |
| 2026-05-06 17:05 | 28.29191 | -80.94522 | 10314 ft | 299 kts | 98° |
| 2026-05-06 17:05 | 28.28835 | -80.92149 | 10544 ft | 312 kts | 98° |
| 2026-05-06 17:05 | 28.28467 | -80.89678 | 10779 ft | 325 kts | 98° |
| 2026-05-06 17:05 | 28.28018 | -80.87149 | 11009 ft | 337 kts | 102° |
| 2026-05-06 17:06 | 28.27341 | -80.84537 | 11244 ft | 349 kts | 107° |
| 2026-05-06 17:06 | 28.26460 | -80.81941 | 11601 ft | 356 kts | 110° |
| 2026-05-06 17:06 | 28.25532 | -80.79364 | 12019 ft | 359 kts | 110° |
| 2026-05-06 17:06 | 28.24571 | -80.76723 | 12492 ft | 363 kts | 110° |
| 2026-05-06 17:07 | 28.23611 | -80.74084 | 12946 ft | 365 kts | 110° |
| 2026-05-06 17:07 | 28.22638 | -80.71391 | 13171 ft | 375 kts | 110° |
| 2026-05-06 17:07 | 28.21648 | -80.68639 | 13599 ft | 378 kts | 110° |
| 2026-05-06 17:07 | 28.20668 | -80.65879 | 14060 ft | 378 kts | 109° |
| 2026-05-06 17:08 | 28.19747 | -80.63104 | 14447 ft | 383 kts | 108° |
| 2026-05-06 17:08 | 28.18814 | -80.60240 | 14899 ft | 386 kts | 108° |
| 2026-05-06 17:08 | 28.17890 | -80.57407 | 15310 ft | 389 kts | 108° |
| 2026-05-06 17:08 | 28.16945 | -80.54535 | 15727 ft | 392 kts | 108° |
| 2026-05-06 17:09 | 28.15990 | -80.51643 | 16142 ft | 396 kts | 108° |
| 2026-05-06 17:09 | 28.15023 | -80.48721 | 16562 ft | 399 kts | 108° |
| 2026-05-06 17:09 | 28.14044 | -80.45766 | 16985 ft | 401 kts | 108° |
| 2026-05-06 17:09 | 28.13068 | -80.42824 | 17384 ft | 403 kts | 108° |
| 2026-05-06 17:10 | 28.12079 | -80.39848 | 17771 ft | 406 kts | 108° |
| 2026-05-06 17:10 | 28.11081 | -80.36845 | 18078 ft | 409 kts | 108° |
| 2026-05-06 17:10 | 28.09904 | -80.33923 | 18401 ft | 415 kts | 122° |
| 2026-05-06 17:10 | 28.07868 | -80.31556 | 18747 ft | 420 kts | 146° |
| 2026-05-06 17:11 | 28.05271 | -80.30172 | 19144 ft | 418 kts | 162° |
| 2026-05-06 17:11 | 28.02500 | -80.29144 | 19526 ft | 420 kts | 164° |
| 2026-05-06 17:11 | 27.99694 | -80.28117 | 19881 ft | 423 kts | 163° |
| 2026-05-06 17:11 | 27.96888 | -80.27070 | 20233 ft | 426 kts | 163° |
| 2026-05-06 17:12 | 27.94090 | -80.26006 | 20567 ft | 428 kts | 163° |
| 2026-05-06 17:12 | 27.91247 | -80.24908 | 20918 ft | 430 kts | 162° |
| 2026-05-06 17:12 | 27.88437 | -80.23816 | 21265 ft | 432 kts | 162° |
| 2026-05-06 17:12 | 27.85560 | -80.22695 | 21607 ft | 434 kts | 162° |
| 2026-05-06 17:13 | 27.82702 | -80.21582 | 21936 ft | 435 kts | 162° |
| 2026-05-06 17:13 | 27.79828 | -80.20461 | 22260 ft | 437 kts | 162° |
| 2026-05-06 17:13 | 27.76973 | -80.19351 | 22564 ft | 439 kts | 163° |
| 2026-05-06 17:13 | 27.74066 | -80.18223 | 22879 ft | 441 kts | 163° |
| 2026-05-06 17:14 | 27.71171 | -80.17099 | 23113 ft | 443 kts | 163° |
| 2026-05-06 17:14 | 27.68259 | -80.15968 | 23162 ft | 442 kts | 163° |
| 2026-05-06 17:14 | 27.65332 | -80.14830 | 23188 ft | 442 kts | 163° |
| 2026-05-06 17:14 | 27.62426 | -80.13697 | 23208 ft | 441 kts | 163° |
| 2026-05-06 17:15 | 27.59548 | -80.12547 | 23199 ft | 442 kts | 162° |
| 2026-05-06 17:15 | 27.56647 | -80.11350 | 23162 ft | 442 kts | 161° |
| 2026-05-06 17:15 | 27.53782 | -80.10157 | 23142 ft | 442 kts | 161° |
| 2026-05-06 17:15 | 27.50877 | -80.08952 | 23133 ft | 442 kts | 161° |
| 2026-05-06 17:16 | 27.48007 | -80.07765 | 23126 ft | 442 kts | 162° |
| 2026-05-06 17:16 | 27.45105 | -80.06570 | 23120 ft | 442 kts | 162° |
| 2026-05-06 17:16 | 27.42221 | -80.05383 | 23116 ft | 442 kts | 162° |
| 2026-05-06 17:16 | 27.39303 | -80.04198 | 23111 ft | 441 kts | 163° |
| 2026-05-06 17:17 | 27.36404 | -80.03191 | 23110 ft | 440 kts | 166° |
| 2026-05-06 17:17 | 27.33417 | -80.02268 | 23112 ft | 440 kts | 167° |
| 2026-05-06 17:17 | 27.30465 | -80.01372 | 23112 ft | 440 kts | 167° |
| 2026-05-06 17:17 | 27.27526 | -80.00482 | 23112 ft | 440 kts | 167° |
| 2026-05-06 17:18 | 27.24589 | -79.99526 | 23106 ft | 434 kts | 164° |
| 2026-05-06 17:18 | 27.21739 | -79.98505 | 23063 ft | 431 kts | 164° |
| 2026-05-06 17:18 | 27.18867 | -79.97464 | 22794 ft | 428 kts | 164° |
| 2026-05-06 17:18 | 27.16056 | -79.96445 | 22343 ft | 427 kts | 164° |
| 2026-05-06 17:19 | 27.13234 | -79.95425 | 21722 ft | 431 kts | 164° |
| 2026-05-06 17:19 | 27.10393 | -79.94400 | 21286 ft | 426 kts | 164° |
| 2026-05-06 17:19 | 27.07559 | -79.93377 | 20905 ft | 420 kts | 163° |
| 2026-05-06 17:19 | 27.04826 | -79.92308 | 20539 ft | 415 kts | 162° |
| 2026-05-06 17:20 | 27.02139 | -79.91224 | 20169 ft | 408 kts | 161° |
| 2026-05-06 17:20 | 26.99464 | -79.90140 | 19641 ft | 403 kts | 161° |
| 2026-05-06 17:20 | 26.96866 | -79.89088 | 19029 ft | 400 kts | 161° |
| 2026-05-06 17:20 | 26.94264 | -79.88038 | 18408 ft | 396 kts | 161° |
| 2026-05-06 17:21 | 26.91649 | -79.86984 | 17801 ft | 392 kts | 161° |
| 2026-05-06 17:21 | 26.89123 | -79.85967 | 17183 ft | 389 kts | 161° |
| 2026-05-06 17:21 | 26.86570 | -79.84940 | 16550 ft | 386 kts | 161° |
| 2026-05-06 17:21 | 26.84055 | -79.83928 | 15969 ft | 381 kts | 161° |
| 2026-05-06 17:22 | 26.81623 | -79.82950 | 15575 ft | 370 kts | 161° |
| 2026-05-06 17:22 | 26.79209 | -79.81979 | 15184 ft | 365 kts | 161° |
| 2026-05-06 17:22 | 26.76811 | -79.81016 | 14728 ft | 363 kts | 161° |
| 2026-05-06 17:22 | 26.74452 | -79.80067 | 14277 ft | 363 kts | 161° |
| 2026-05-06 17:23 | 26.72080 | -79.79127 | 13822 ft | 362 kts | 163° |
| 2026-05-06 17:23 | 26.69596 | -79.78715 | 13347 ft | 358 kts | 184° |
| 2026-05-06 17:23 | 26.67864 | -79.79029 | 13054 ft | 353 kts | 199° |
| 2026-05-06 17:24 | 26.66318 | -79.79618 | 12790 ft | 350 kts | 203° |
| 2026-05-06 17:24 | 26.64046 | -79.80598 | 12359 ft | 349 kts | 204° |
| 2026-05-06 17:24 | 26.61798 | -79.81575 | 11924 ft | 347 kts | 203° |
| 2026-05-06 17:24 | 26.59555 | -79.82523 | 11492 ft | 347 kts | 202° |
| 2026-05-06 17:25 | 26.57282 | -79.83462 | 11117 ft | 341 kts | 202° |
| 2026-05-06 17:25 | 26.55079 | -79.84383 | 10990 ft | 329 kts | 204° |
| 2026-05-06 17:25 | 26.52995 | -79.85341 | 10625 ft | 326 kts | 205° |
| 2026-05-06 17:25 | 26.50908 | -79.86327 | 10199 ft | 327 kts | 205° |
| 2026-05-06 17:26 | 26.48807 | -79.87324 | 9938 ft | 319 kts | 205° |
| 2026-05-06 17:26 | 26.46808 | -79.88269 | 9608 ft | 312 kts | 205° |
| 2026-05-06 17:26 | 26.44836 | -79.89198 | 9266 ft | 303 kts | 205° |
| 2026-05-06 17:26 | 26.42907 | -79.90106 | 8881 ft | 298 kts | 204° |
| 2026-05-06 17:27 | 26.41001 | -79.91001 | 8513 ft | 295 kts | 204° |
| 2026-05-06 17:27 | 26.39116 | -79.91894 | 8151 ft | 294 kts | 206° |
| 2026-05-06 17:27 | 26.37285 | -79.92921 | 7886 ft | 288 kts | 211° |
| 2026-05-06 17:27 | 26.35550 | -79.94025 | 7907 ft | 288 kts | 211° |
| 2026-05-06 17:28 | 26.33832 | -79.95135 | 7929 ft | 288 kts | 211° |
| 2026-05-06 17:28 | 26.32093 | -79.96257 | 7952 ft | 288 kts | 211° |
| 2026-05-06 17:28 | 26.30347 | -79.97379 | 7975 ft | 288 kts | 211° |
| 2026-05-06 17:28 | 26.28618 | -79.98488 | 7990 ft | 288 kts | 211° |
| 2026-05-06 17:29 | 26.26863 | -79.99614 | 7996 ft | 288 kts | 211° |
| 2026-05-06 17:29 | 26.25146 | -80.00714 | 7999 ft | 288 kts | 211° |
| 2026-05-06 17:29 | 26.23410 | -80.01827 | 8000 ft | 288 kts | 211° |
| 2026-05-06 17:29 | 26.21673 | -80.02942 | 7999 ft | 288 kts | 211° |
| 2026-05-06 17:30 | 26.19910 | -80.04074 | 7999 ft | 288 kts | 211° |
| 2026-05-06 17:30 | 26.18324 | -80.05396 | 7982 ft | 286 kts | 230° |
| 2026-05-06 17:30 | 26.17338 | -80.07276 | 7994 ft | 285 kts | 251° |
| 2026-05-06 17:30 | 26.16717 | -80.09364 | 7998 ft | 284 kts | 253° |
| 2026-05-06 17:31 | 26.16119 | -80.11469 | 7996 ft | 284 kts | 253° |
| 2026-05-06 17:31 | 26.15521 | -80.13543 | 7946 ft | 280 kts | 254° |
| 2026-05-06 17:31 | 26.15093 | -80.15665 | 7586 ft | 279 kts | 263° |
| 2026-05-06 17:31 | 26.14975 | -80.17817 | 7209 ft | 279 kts | 270° |
| 2026-05-06 17:32 | 26.14985 | -80.19966 | 6903 ft | 277 kts | 271° |
| 2026-05-06 17:32 | 26.15011 | -80.22082 | 6595 ft | 276 kts | 271° |
| 2026-05-06 17:32 | 26.15034 | -80.24229 | 6278 ft | 274 kts | 271° |
| 2026-05-06 17:32 | 26.15050 | -80.26340 | 5957 ft | 273 kts | 271° |
| 2026-05-06 17:33 | 26.15064 | -80.28422 | 5627 ft | 272 kts | 271° |
| 2026-05-06 17:33 | 26.15076 | -80.30523 | 5306 ft | 271 kts | 271° |
| 2026-05-06 17:33 | 26.15085 | -80.32608 | 4984 ft | 269 kts | 271° |
| 2026-05-06 17:33 | 26.15094 | -80.34688 | 4641 ft | 268 kts | 271° |
| 2026-05-06 17:34 | 26.15071 | -80.36767 | 4314 ft | 268 kts | 270° |
| 2026-05-06 17:34 | 26.15028 | -80.38837 | 4009 ft | 267 kts | 269° |
| 2026-05-06 17:34 | 26.14984 | -80.40892 | 3703 ft | 266 kts | 269° |
| 2026-05-06 17:34 | 26.14916 | -80.42950 | 3390 ft | 266 kts | 264° |
| 2026-05-06 17:35 | 26.14310 | -80.44867 | 3060 ft | 266 kts | 235° |
| 2026-05-06 17:35 | 26.12940 | -80.46205 | 2992 ft | 267 kts | 206° |
| 2026-05-06 17:35 | 26.11137 | -80.46663 | 3008 ft | 267 kts | 177° |
| 2026-05-06 17:36 | 26.08042 | -80.44742 | 3023 ft | 264 kts | 121° |
| 2026-05-06 17:36 | 26.07477 | -80.42809 | 3026 ft | 263 kts | 92° |
| 2026-05-06 17:36 | 26.07595 | -80.40792 | 3014 ft | 258 kts | 83° |
| 2026-05-06 17:36 | 26.07752 | -80.38856 | 2995 ft | 245 kts | 86° |
| 2026-05-06 17:37 | 26.07822 | -80.37024 | 2984 ft | 233 kts | 88° |
| 2026-05-06 17:37 | 26.07834 | -80.35276 | 2974 ft | 220 kts | 89° |
| 2026-05-06 17:37 | 26.07821 | -80.33614 | 2927 ft | 209 kts | 90° |
| 2026-05-06 17:37 | 26.07803 | -80.32035 | 2731 ft | 202 kts | 89° |
| 2026-05-06 17:38 | 26.07789 | -80.30484 | 2453 ft | 206 kts | 89° |
| 2026-05-06 17:38 | 26.07776 | -80.28951 | 2148 ft | 192 kts | 89° |
| 2026-05-06 17:38 | 26.07764 | -80.27531 | 1922 ft | 177 kts | 89° |
| 2026-05-06 17:38 | 26.07753 | -80.26206 | 1671 ft | 165 kts | 88° |
| 2026-05-06 17:39 | 26.07729 | -80.24990 | 1445 ft | 153 kts | 90° |
| 2026-05-06 17:39 | 26.07703 | -80.23827 | 1244 ft | 148 kts | 89° |
| 2026-05-06 17:39 | 26.07713 | -80.22668 | 1036 ft | 148 kts | 88° |
| 2026-05-06 17:39 | 26.07728 | -80.21529 | 883 ft | 148 kts | 89° |
| 2026-05-06 17:40 | 26.07713 | -80.20389 | 687 ft | 147 kts | 90° |
| 2026-05-06 17:40 | 26.07705 | -80.19256 | 499 ft | 147 kts | 90° |
| 2026-05-06 17:40 | 26.07717 | -80.18127 | 322 ft | 147 kts | 90° |
| 2026-05-06 17:40 | 26.07702 | -80.17012 | 132 ft | 141 kts | 91° |
| 2026-05-06 17:41 | 26.07691 | -80.15945 | 13 ft | 131 kts | 91° |
| 2026-05-06 17:41 | 26.07685 | -80.15090 | 13 ft | 81 kts | 90° |
| 2026-05-06 17:41 | 26.07670 | -80.14729 | 13 ft | 26 kts | 102° |
| 2026-05-06 17:41 | 26.07632 | -80.14610 | 13 ft | 11 kts | 112° |
| 2026-05-06 17:42 | 26.07571 | -80.14569 | 13 ft | 9 kts | 210° |
| 2026-05-06 17:42 | 26.07560 | -80.14646 | 13 ft | 11 kts | 271° |
| 2026-05-06 17:42 | 26.07561 | -80.14737 | 13 ft | 12 kts | 271° |
| 2026-05-06 17:42 | 26.07551 | -80.14826 | 13 ft | 11 kts | 236° |
| 2026-05-06 17:43 | 26.07494 | -80.14891 | 13 ft | 12 kts | 225° |
| 2026-05-06 17:43 | 26.07437 | -80.14950 | 13 ft | 8 kts | 210° |
| 2026-05-06 17:43 | 26.07386 | -80.14925 | 13 ft | 9 kts | 115° |
| 2026-05-06 17:43 | 26.07361 | -80.14856 | 13 ft | 7 kts | 107° |
| 2026-05-06 17:44 | 26.07354 | -80.14803 | 13 ft | 6 kts | 98° |
| 2026-05-06 17:44 | 26.07346 | -80.14774 | 13 ft | 2 kts | 109° |
| 2026-05-06 17:44 | 26.07344 | -80.14765 | 13 ft | 0 kts | 107° |